createdAt,value
2023-05-19T00:01:37.567Z,10.02
2023-05-19T00:04:40.656Z,9.03
2023-05-19T00:07:44.235Z,9.50
2023-05-19T00:10:46.641Z,8.73
2023-05-19T00:13:49.719Z,9.18
2023-05-19T00:16:51.635Z,9.48
2023-05-19T00:19:54.849Z,8.33
2023-05-19T00:22:56.615Z,8.57
2023-05-19T00:25:58.214Z,9.00
2023-05-19T00:29:00.025Z,8.98
2023-05-19T00:32:01.732Z,8.93
2023-05-19T00:35:03.441Z,9.20
2023-05-19T00:38:05.034Z,9.27
2023-05-19T00:41:07.572Z,8.35
2023-05-19T00:44:09.176Z,8.70
2023-05-19T00:47:10.837Z,8.65
2023-05-19T00:50:12.563Z,9.67
2023-05-19T00:53:15.068Z,8.38
2023-05-19T00:56:17.463Z,8.45
2023-05-19T00:59:19.193Z,9.75
2023-05-19T01:02:21.597Z,8.43
2023-05-19T01:05:23.364Z,10.63
2023-05-19T01:08:25.063Z,8.90
2023-05-19T01:11:26.676Z,9.45
2023-05-19T01:14:28.918Z,9.43
2023-05-19T01:17:51.560Z,8.77
2023-05-19T01:21:05.867Z,9.07
2023-05-19T01:24:23.533Z,8.38
2023-05-19T01:27:27.301Z,9.38
2023-05-19T01:30:33.920Z,9.63
2023-05-19T01:33:36.393Z,16.48
2023-05-19T01:36:38.988Z,8.57
2023-05-19T01:39:42.086Z,9.73
2023-05-19T01:42:45.534Z,9.40
2023-05-19T01:45:47.932Z,8.57
2023-05-19T01:48:50.149Z,8.70
2023-05-19T01:51:53.017Z,9.93
2023-05-19T01:54:54.670Z,10.00
2023-05-19T01:58:14.853Z,10.10
2023-05-19T02:01:55.060Z,9.82
2023-05-19T02:05:02.931Z,9.38
2023-05-19T02:08:26.295Z,9.30
2023-05-19T02:11:42.345Z,9.32
2023-05-19T02:15:00.650Z,10.35
2023-05-19T02:18:04.623Z,9.85
2023-05-19T02:21:06.835Z,9.07
2023-05-19T02:24:08.621Z,10.50
2023-05-19T02:27:10.310Z,10.77
2023-05-19T02:30:12.121Z,11.48
2023-05-19T02:33:13.882Z,9.57
2023-05-19T02:36:15.578Z,11.05
2023-05-19T02:39:18.066Z,11.00
2023-05-19T02:42:19.940Z,9.38
2023-05-19T02:45:21.578Z,9.48
2023-05-19T02:48:23.250Z,11.40
2023-05-19T02:51:24.985Z,9.43
2023-05-19T02:54:26.637Z,12.57
2023-05-19T02:57:30.070Z,9.70
2023-05-19T03:00:31.863Z,10.27
2023-05-19T03:03:33.882Z,9.20
2023-05-19T03:06:36.387Z,9.48
2023-05-19T03:09:38.138Z,9.50
2023-05-19T03:12:39.783Z,10.45
2023-05-19T03:15:42.566Z,9.70
2023-05-19T03:18:44.383Z,10.43
2023-05-19T03:21:46.412Z,14.10
2023-05-19T03:24:51.092Z,8.80
2023-05-19T03:27:52.760Z,9.88
2023-05-19T03:30:54.477Z,10.52
2023-05-19T03:33:57.932Z,11.65
2023-05-19T03:36:59.694Z,10.20
2023-05-19T03:40:01.371Z,10.80
2023-05-19T03:43:02.979Z,11.20
2023-05-19T03:46:04.721Z,9.32
2023-05-19T03:49:06.438Z,9.43
2023-05-19T03:52:08.091Z,9.98
2023-05-19T03:55:09.958Z,10.30
2023-05-19T03:58:14.638Z,11.73
2023-05-19T04:01:16.323Z,10.57
2023-05-19T04:04:18.068Z,9.70
2023-05-19T04:07:19.725Z,10.90
2023-05-19T04:10:21.754Z,11.13
2023-05-19T04:13:23.391Z,10.45
2023-05-19T04:16:25.261Z,12.43
2023-05-19T04:19:27.137Z,9.48
2023-05-19T04:22:28.812Z,9.98
2023-05-19T04:25:30.462Z,10.63
2023-05-19T04:28:32.125Z,11.43
2023-05-19T04:31:35.271Z,10.93
2023-05-19T04:34:45.288Z,11.15
2023-05-19T04:37:47.086Z,10.55
2023-05-19T04:40:50.379Z,10.47
2023-05-19T04:43:52.111Z,11.13
2023-05-19T04:46:54.573Z,10.70
2023-05-19T04:49:56.476Z,13.07
2023-05-19T04:52:59.360Z,12.50
2023-05-19T04:56:02.088Z,10.90
2023-05-19T04:59:03.805Z,13.77
2023-05-19T05:02:05.724Z,9.60
2023-05-19T05:05:08.233Z,9.95
2023-05-19T05:08:13.191Z,9.70
2023-05-19T05:11:15.496Z,10.03
2023-05-19T05:14:17.378Z,10.55
2023-05-19T05:17:20.559Z,10.30
2023-05-19T05:20:22.770Z,8.75
2023-05-19T05:23:24.691Z,12.55
2023-05-19T05:26:30.542Z,9.87
2023-05-19T05:29:32.256Z,10.52
2023-05-19T05:32:34.143Z,7.90
2023-05-19T05:35:36.123Z,8.63
2023-05-19T05:38:37.733Z,8.88
2023-05-19T05:41:39.766Z,10.80
2023-05-19T05:44:41.521Z,9.40
2023-05-19T05:47:43.516Z,9.20
2023-05-19T05:50:45.854Z,7.70
2023-05-19T05:53:52.340Z,8.10
2023-05-19T05:56:54.161Z,9.33
2023-05-19T05:59:55.876Z,8.82
2023-05-19T06:03:00.188Z,9.68
2023-05-19T06:06:02.182Z,8.60
2023-05-19T06:09:04.286Z,9.02
2023-05-19T06:12:06.782Z,8.07
2023-05-19T06:15:09.012Z,9.55
2023-05-19T06:18:11.770Z,8.77
2023-05-19T06:21:13.723Z,8.23
2023-05-19T06:24:15.440Z,8.55
2023-05-19T06:27:17.238Z,8.53
2023-05-19T06:30:18.939Z,8.90
2023-05-19T06:33:20.715Z,8.30
2023-05-19T06:36:22.378Z,7.95
2023-05-19T06:39:24.858Z,8.65
2023-05-19T06:42:26.521Z,7.77
2023-05-19T06:45:28.115Z,8.15
2023-05-19T06:48:32.673Z,9.30
2023-05-19T06:51:35.411Z,7.53
2023-05-19T06:54:38.343Z,7.18
2023-05-19T06:57:40.096Z,7.43
2023-05-19T07:00:41.787Z,7.60
2023-05-19T07:03:44.973Z,7.82
2023-05-19T07:06:46.624Z,8.20
2023-05-19T07:09:48.359Z,8.43
2023-05-19T07:12:50.119Z,9.33
2023-05-19T07:15:55.760Z,7.93
2023-05-19T07:18:57.718Z,8.90
2023-05-19T07:21:59.451Z,7.32
2023-05-19T07:25:01.276Z,7.88
2023-05-19T07:28:03.005Z,7.40
2023-05-19T07:31:04.678Z,8.88
2023-05-19T07:34:06.453Z,10.70
2023-05-19T07:37:08.324Z,7.75
2023-05-19T07:40:10.278Z,6.72
2023-05-19T07:43:11.968Z,6.70
2023-05-19T07:46:13.706Z,8.60
2023-05-19T07:49:15.566Z,7.20
2023-05-19T07:52:18.332Z,8.40
2023-05-19T07:55:23.168Z,8.82
2023-05-19T07:58:24.930Z,8.27
2023-05-19T08:01:26.727Z,9.68
2023-05-19T08:04:28.827Z,8.48
2023-05-19T08:07:30.924Z,7.38
2023-05-19T08:10:32.641Z,8.20
2023-05-19T08:13:34.953Z,7.37
2023-05-19T08:16:36.822Z,7.75
2023-05-19T08:19:38.547Z,8.80
2023-05-19T08:22:40.408Z,7.80
2023-05-19T08:25:42.077Z,6.57
2023-05-19T08:28:44.252Z,6.13
2023-05-19T08:31:46.195Z,6.55
2023-05-19T08:34:48.006Z,7.28
2023-05-19T08:37:49.690Z,6.13
2023-05-19T08:40:51.556Z,6.13
2023-05-19T08:43:53.401Z,6.80
2023-05-19T08:46:58.301Z,6.57
2023-05-19T08:50:11.015Z,6.60
2023-05-19T08:53:32.454Z,7.45
2023-05-19T08:56:36.718Z,6.93
2023-05-19T08:59:41.158Z,7.63
2023-05-19T09:02:54.979Z,6.78
2023-05-19T09:06:10.378Z,6.65
2023-05-19T09:09:12.308Z,7.22
2023-05-19T09:12:14.370Z,7.03
2023-05-19T09:15:18.775Z,7.87
2023-05-19T09:18:20.396Z,7.82
2023-05-19T09:21:31.045Z,6.95
2023-05-19T09:24:34.281Z,7.22
2023-05-19T09:27:36.181Z,7.00
2023-05-19T09:30:37.931Z,6.50
2023-05-19T09:33:44.327Z,6.25
2023-05-19T09:36:49.616Z,6.68
2023-05-19T09:39:52.943Z,7.45
2023-05-19T09:42:54.920Z,6.57
2023-05-19T09:46:07.965Z,7.00
2023-05-19T09:49:10.308Z,6.55
2023-05-19T09:52:16.343Z,6.75
2023-05-19T09:55:20.115Z,6.55
2023-05-19T09:58:22.291Z,6.82
2023-05-19T10:01:24.580Z,6.87
2023-05-19T10:04:29.036Z,6.50
2023-05-19T10:07:31.260Z,7.70
2023-05-19T10:10:34.014Z,6.70
2023-05-19T10:13:38.710Z,6.88
2023-05-19T10:16:40.760Z,6.27
2023-05-19T10:19:44.710Z,6.53
2023-05-19T10:22:46.824Z,6.60
2023-05-19T10:25:51.740Z,9.32
2023-05-19T10:28:53.480Z,6.10
2023-05-19T10:31:59.868Z,7.47
2023-05-19T10:35:13.769Z,6.28
2023-05-19T10:38:50.468Z,8.48
2023-05-19T10:42:17.394Z,5.93
2023-05-19T10:45:24.096Z,7.38
2023-05-19T10:48:25.878Z,6.63
2023-05-19T10:51:32.001Z,6.15
2023-05-19T10:54:46.196Z,7.43
2023-05-19T10:57:57.243Z,6.53
2023-05-19T11:01:01.851Z,7.38
2023-05-19T11:04:13.773Z,7.57
2023-05-19T11:07:20.415Z,6.80
2023-05-19T11:10:25.514Z,7.82
2023-05-19T11:16:32.333Z,6.78
2023-05-19T11:19:37.314Z,8.87
2023-05-19T11:22:40.001Z,6.50
2023-05-19T11:25:44.975Z,6.68
2023-05-19T11:28:48.135Z,9.10
2023-05-19T11:31:52.291Z,6.38
2023-05-19T11:34:56.115Z,6.57
2023-05-19T11:37:59.154Z,6.50
2023-05-19T11:41:01.379Z,6.50
2023-05-19T11:44:03.005Z,6.50
2023-05-19T11:47:08.530Z,6.47
2023-05-19T11:50:12.771Z,6.60
2023-05-19T11:53:16.507Z,7.60
2023-05-19T11:56:18.194Z,7.35
2023-05-19T11:59:34.937Z,8.43
2023-05-19T12:02:37.567Z,6.15
2023-05-19T12:05:44.888Z,6.03
2023-05-19T12:08:47.102Z,7.28
2023-05-19T12:11:49.914Z,6.90
2023-05-19T12:14:52.634Z,6.35
2023-05-19T12:17:59.195Z,7.10
2023-05-19T12:21:00.940Z,6.57
2023-05-19T12:24:03.354Z,6.80
2023-05-19T12:27:06.004Z,6.00
2023-05-19T12:30:08.463Z,8.32
2023-05-19T12:33:10.282Z,6.90
2023-05-19T12:36:13.580Z,7.93
2023-05-19T12:39:15.561Z,7.95
2023-05-19T12:42:17.633Z,6.45
2023-05-19T12:45:22.937Z,8.35
2023-05-19T12:48:24.726Z,7.03
2023-05-19T12:51:26.401Z,6.80
2023-05-19T12:54:28.580Z,7.55
2023-05-19T12:57:32.515Z,6.70
2023-05-19T13:00:36.167Z,7.05
2023-05-19T13:03:44.446Z,7.90
2023-05-19T13:06:49.580Z,8.27
2023-05-19T13:09:51.264Z,6.70
2023-05-19T13:12:54.456Z,6.70
2023-05-19T13:15:56.530Z,6.47
2023-05-19T13:18:58.895Z,8.32
2023-05-19T13:22:07.725Z,7.80
2023-05-19T13:25:10.116Z,6.10
2023-05-19T13:28:11.938Z,6.18
2023-05-19T13:31:13.710Z,6.55
2023-05-19T13:34:15.389Z,6.22
2023-05-19T13:37:17.160Z,6.77
2023-05-19T13:40:19.252Z,7.13
2023-05-19T13:43:21.615Z,6.82
2023-05-19T13:46:32.742Z,6.70
2023-05-19T13:49:44.813Z,8.70
2023-05-19T13:52:47.967Z,7.43
2023-05-19T13:55:52.916Z,10.65
2023-05-19T13:58:55.410Z,6.47
2023-05-19T14:01:57.372Z,6.85
2023-05-19T14:04:59.608Z,10.30
2023-05-19T14:08:01.333Z,7.10
2023-05-19T14:11:03.097Z,8.45
2023-05-19T14:14:04.830Z,12.52
2023-05-19T14:17:06.515Z,6.50
2023-05-19T14:20:08.647Z,7.03
2023-05-19T14:23:10.977Z,5.90
2023-05-19T14:26:12.673Z,5.45
2023-05-19T14:29:14.378Z,6.55
2023-05-19T14:32:16.610Z,8.10
2023-05-19T14:35:18.403Z,6.20
2023-05-19T14:38:20.053Z,6.23
2023-05-19T14:41:21.889Z,6.18
2023-05-19T14:44:23.487Z,6.05
2023-05-19T14:47:26.346Z,6.20
2023-05-19T14:50:29.409Z,7.38
2023-05-19T14:53:31.321Z,6.13
2023-05-19T14:56:32.970Z,7.88
2023-05-19T14:59:37.968Z,6.13
2023-05-19T15:02:39.789Z,8.02
2023-05-19T15:05:41.557Z,7.45
2023-05-19T15:08:43.347Z,5.87
2023-05-19T15:11:44.903Z,6.90
2023-05-19T15:14:46.784Z,5.93
2023-05-19T15:17:48.510Z,6.80
2023-05-19T15:20:50.237Z,6.72
2023-05-19T15:23:51.928Z,6.47
2023-05-19T15:26:55.423Z,7.25
2023-05-19T15:29:58.507Z,7.53
2023-05-19T15:33:00.187Z,6.32
2023-05-19T15:36:01.921Z,7.13
2023-05-19T15:39:03.811Z,6.37
2023-05-19T15:42:05.699Z,5.85
2023-05-19T15:45:08.274Z,6.90
2023-05-19T15:48:09.919Z,7.00
2023-05-19T15:51:11.640Z,6.43
2023-05-19T15:54:13.307Z,6.10
2023-05-19T15:57:14.874Z,7.82
2023-05-19T16:00:16.621Z,6.55
2023-05-19T16:03:18.292Z,6.30
2023-05-19T16:06:20.105Z,5.90
2023-05-19T16:09:21.762Z,6.13
2023-05-19T16:12:24.265Z,5.97
2023-05-19T16:15:25.957Z,6.30
2023-05-19T16:18:29.238Z,6.95
2023-05-19T16:21:32.236Z,5.88
2023-05-19T16:24:33.893Z,7.00
2023-05-19T16:27:35.498Z,6.32
2023-05-19T16:30:38.024Z,7.72
2023-05-19T16:33:40.066Z,7.75
2023-05-19T16:36:41.656Z,6.97
2023-05-19T16:39:44.010Z,6.30
2023-05-19T16:42:45.770Z,7.03
2023-05-19T16:45:47.716Z,7.50
2023-05-19T16:48:49.425Z,7.85
2023-05-19T16:51:53.053Z,7.50
2023-05-19T16:54:54.841Z,8.43
2023-05-19T16:57:56.527Z,6.55
2023-05-19T17:00:58.379Z,6.18
2023-05-19T17:03:59.977Z,6.95
2023-05-19T17:07:01.725Z,6.97
2023-05-19T17:10:03.481Z,7.00
2023-05-19T17:13:05.749Z,8.50
2023-05-19T17:16:07.491Z,9.70
2023-05-19T17:19:09.160Z,7.90
2023-05-19T17:22:10.833Z,8.73
2023-05-19T17:25:12.480Z,8.80
2023-05-19T17:28:14.182Z,7.65
2023-05-19T17:31:16.238Z,12.15
2023-05-19T17:34:17.907Z,9.13
2023-05-19T17:37:23.396Z,9.10
2023-05-19T17:40:25.125Z,7.43
2023-05-19T17:43:27.125Z,9.40
2023-05-19T17:46:34.383Z,18.25
2023-05-19T17:49:36.134Z,11.65
2023-05-19T17:52:40.158Z,7.53
2023-05-19T17:55:43.997Z,9.30
2023-05-19T17:58:47.012Z,9.50
2023-05-19T18:01:48.882Z,9.90
2023-05-19T18:04:50.895Z,7.75
2023-05-19T18:07:54.165Z,8.68
2023-05-19T18:10:57.089Z,8.00
2023-05-19T18:13:58.825Z,10.40
2023-05-19T18:17:00.856Z,8.43
2023-05-19T18:20:02.716Z,8.02
2023-05-19T18:23:05.211Z,8.60
2023-05-19T18:26:07.184Z,8.70
2023-05-19T18:29:09.777Z,8.30
2023-05-19T18:32:14.655Z,9.23
2023-05-19T18:35:16.711Z,8.50
2023-05-19T18:38:18.316Z,8.93
2023-05-19T18:41:20.078Z,8.40
2023-05-19T18:44:21.804Z,9.18
2023-05-19T18:47:23.414Z,8.80
2023-05-19T18:50:25.055Z,9.52
2023-05-19T18:53:26.821Z,11.05
2023-05-19T18:56:31.076Z,10.23
2023-05-19T18:59:32.848Z,9.63
2023-05-19T19:02:34.553Z,9.88
2023-05-19T19:05:36.308Z,10.13
2023-05-19T19:08:37.948Z,9.57
2023-05-19T19:11:39.748Z,11.47
2023-05-19T19:14:41.721Z,9.25
2023-05-19T19:17:43.674Z,10.00
2023-05-19T19:20:45.431Z,9.65
2023-05-19T19:23:47.128Z,9.30
2023-05-19T19:26:48.730Z,8.77
2023-05-19T19:29:50.323Z,8.48
2023-05-19T19:32:57.045Z,9.02
2023-05-19T19:35:58.804Z,8.98
2023-05-19T19:39:00.789Z,7.72
2023-05-19T19:42:02.420Z,10.07
2023-05-19T19:45:05.141Z,9.65
2023-05-19T19:48:07.249Z,12.70
2023-05-19T19:51:09.005Z,9.88
2023-05-19T19:54:10.664Z,10.45
2023-05-19T19:57:12.353Z,9.87
2023-05-19T20:00:14.525Z,10.85
2023-05-19T20:03:16.466Z,12.02
2023-05-19T20:06:18.253Z,10.43
2023-05-19T20:09:19.838Z,12.27
2023-05-19T20:12:24.684Z,13.40
2023-05-19T20:15:26.779Z,11.88
2023-05-19T20:18:29.932Z,14.77
2023-05-19T20:21:31.758Z,11.20
2023-05-19T20:24:33.456Z,10.98
2023-05-19T20:27:35.156Z,11.80
2023-05-19T20:30:37.205Z,12.40
2023-05-19T20:33:39.088Z,14.57
2023-05-19T20:36:41.011Z,11.90
2023-05-19T20:39:42.821Z,10.55
2023-05-19T20:42:44.674Z,10.40
2023-05-19T20:45:46.513Z,11.70
2023-05-19T20:48:48.206Z,10.93
2023-05-19T20:51:49.862Z,11.52
2023-05-19T20:54:51.424Z,13.48
2023-05-19T20:57:53.040Z,14.47
2023-05-19T21:00:57.524Z,11.40
2023-05-19T21:04:01.071Z,12.05
2023-05-19T21:07:02.809Z,13.13
2023-05-19T21:10:04.908Z,12.95
2023-05-19T21:13:06.664Z,13.10
2023-05-19T21:16:08.404Z,11.95
2023-05-19T21:19:10.441Z,12.40
2023-05-19T21:22:12.058Z,11.95
2023-05-19T21:25:13.791Z,14.55
2023-05-19T21:28:15.747Z,15.67
2023-05-19T21:31:17.414Z,13.93
2023-05-19T21:34:19.216Z,13.20
2023-05-19T21:37:21.638Z,12.73
2023-05-19T21:40:23.295Z,15.25
2023-05-19T21:43:25.132Z,15.77
2023-05-19T21:46:28.958Z,15.77
2023-05-19T21:49:31.274Z,13.57
2023-05-19T21:52:33.198Z,12.25
2023-05-19T21:55:34.956Z,12.82
2023-05-19T21:58:36.821Z,14.00
2023-05-19T22:01:38.904Z,12.00
2023-05-19T22:04:41.890Z,13.65
2023-05-19T22:07:43.706Z,11.95
2023-05-19T22:10:48.356Z,11.05
2023-05-19T22:13:50.128Z,11.53
2023-05-19T22:16:52.141Z,10.25
2023-05-19T22:19:53.800Z,10.93
2023-05-19T22:22:55.531Z,10.20
2023-05-19T22:25:57.204Z,9.80
2023-05-19T22:28:58.818Z,10.37
2023-05-19T22:32:00.523Z,10.80
2023-05-19T22:35:02.343Z,10.35
2023-05-19T22:38:04.040Z,10.35
2023-05-19T22:41:05.984Z,10.95
2023-05-19T22:44:09.182Z,10.20
2023-05-19T22:47:13.606Z,9.32
2023-05-19T22:50:16.628Z,8.73
2023-05-19T22:53:18.296Z,8.80
2023-05-19T22:56:19.979Z,9.20
2023-05-19T22:59:21.652Z,9.17
2023-05-19T23:02:23.300Z,8.73
2023-05-19T23:05:25.182Z,9.85
2023-05-19T23:08:26.902Z,9.25
2023-05-19T23:11:28.590Z,9.00
2023-05-19T23:14:30.281Z,9.57
2023-05-19T23:17:31.984Z,11.05
2023-05-19T23:20:34.407Z,8.57
2023-05-19T23:23:36.930Z,9.57
2023-05-19T23:26:38.617Z,10.15
2023-05-19T23:29:40.198Z,10.10
2023-05-19T23:32:41.967Z,9.48
2023-05-19T23:35:46.247Z,10.60
2023-05-19T23:38:47.907Z,9.52
2023-05-19T23:41:49.646Z,9.60
2023-05-19T23:44:51.376Z,9.27
2023-05-19T23:47:53.059Z,8.82
2023-05-19T23:50:54.771Z,8.88
2023-05-19T23:53:56.409Z,9.15
2023-05-19T23:56:58.540Z,8.70
